Latest Weather Observations for Tatura

IDV60801

Issued at 11:42 pm EDT Friday 23 February 2024 (issued every 10 minutes, with the page automatically refreshed every 10 minutes)

About weather observations | Map of weather stations | Latest weather observations for VIC | Other Formats
Station Details ID: 081049 Name: TATURA INST SUSTAINABLE AG Lat: -36.44 Lon: 145.27 Height: 114.0 m
Data from the previous 72 hours. | See also: Recent months at Tatura
Date/Time
EDT
Temp
°C
App
Temp
°C
Dew
Point
°C
Rel
Hum
%
Delta-T
°C
Wind Press
QNH
hPa
Press
MSL
hPa
Rain since
9am
mm
Dir  Spd
km/h
Gust
km/h
Spd
kts
Gust
kts
23/11:30pm 16.1 11.2 8.6 61 3.8 S 24 39 13 21 - - 0.0
23/11:00pm 15.9 11.7 9.8 67 3.2 S 22 32 12 17 - - 0.0
23/10:30pm 16.2 12.4 9.2 63 3.6 SSW 19 33 10 18 - - 0.0
23/10:00pm 16.8 11.9 8.5 58 4.3 S 24 37 13 20 - - 0.0
23/09:30pm 17.2 12.7 8.6 57 4.4 S 22 39 12 21 - - 0.0
23/09:00pm 17.5 13.3 8.1 54 4.8 S 20 30 11 16 - - 0.0
23/08:30pm 18.1 13.8 7.8 51 5.3 S 20 33 11 18 - - 0.0
23/08:00pm 18.9 14.0 8.3 50 5.5 S 24 35 13 19 - - 0.0
23/07:30pm 20.1 15.0 7.5 44 6.5 S 24 41 13 22 - - 0.0
23/07:00pm 21.1 15.7 6.2 38 7.5 S 24 37 13 20 - - 0.0
23/06:30pm 22.0 17.1 6.7 37 7.9 S 22 35 12 19 - - 0.0
23/06:00pm 22.3 17.7 6.5 36 8.1 SSW 20 39 11 21 - - 0.0
23/05:30pm 22.2 17.0 7.2 38 7.8 SSW 24 35 13 19 - - 0.0
23/05:00pm 22.4 17.3 7.8 39 7.7 S 24 41 13 22 - - 0.0
23/04:30pm 23.0 17.9 7.5 37 8.1 S 24 39 13 21 - - 0.0
23/04:00pm 23.3 18.7 8.2 38 8.0 SSW 22 32 12 17 - - 0.0
23/03:30pm 22.8 17.3 7.4 37 8.0 SSW 26 41 14 22 - - 0.0
23/03:00pm 23.1 18.3 8.8 40 7.7 SSW 24 33 13 18 - - 0.0
23/02:30pm 22.6 17.4 9.0 42 7.3 SW 26 41 14 22 - - 0.0
23/02:00pm 22.8 18.3 9.9 44 7.1 SSW 24 43 13 23 - - 0.0
23/01:30pm 22.6 17.9 9.4 43 7.1 SSW 24 35 13 19 - - 0.0
23/01:00pm 22.4 17.9 9.9 45 6.8 SW 24 41 13 22 - - 0.0
23/12:30pm 22.3 18.1 9.8 45 6.8 SSW 22 35 12 19 - - 0.0
23/12:00pm 21.6 17.4 9.8 47 6.4 SSW 22 39 12 21 - - 0.0
23/11:30am 20.9 17.3 10.4 51 5.7 SSW 20 33 11 18 - - 0.0
23/11:00am 20.0 15.8 11.0 56 4.9 SSW 24 35 13 19 - - 0.0
23/10:30am 19.2 15.4 11.3 60 4.3 SSW 22 32 12 17 - - 0.0
23/10:00am 18.6 14.7 10.9 61 4.2 SSW 22 33 12 18 - - 0.0
23/09:30am 18.3 13.1 10.4 60 4.3 SSW 28 43 15 23 - - 0.0
23/09:00am 17.1 13.7 11.4 69 3.1 SSW 20 33 11 18 - - 3.2
23/08:30am 17.5 14.3 11.8 69 3.1 SSW 20 35 11 19 - - 3.2
23/08:00am 17.0 13.1 12.1 73 2.7 SSW 24 33 13 18 - - 3.2
23/07:30am 16.8 13.8 12.5 76 2.4 SSW 20 32 11 17 - - 3.2
23/07:00am 16.8 13.8 12.7 77 2.3 SSW 20 32 11 17 - - 3.2
23/06:30am 17.2 12.9 13.3 78 2.2 SW 28 37 15 20 - - 3.2
23/06:00am 18.3 16.1 15.9 86 1.4 SW 22 32 12 17 - - 3.2
23/05:30am 18.9 17.9 16.7 87 1.3 SW 17 24 9 13 - - 3.2
23/05:00am 19.4 18.9 17.0 86 1.5 SW 15 20 8 11 - - 3.2
23/04:30am 19.6 19.2 17.2 86 1.5 SW 15 22 8 12 - - 3.2
23/04:00am 19.8 19.5 17.4 86 1.5 SSW 15 24 8 13 - - 3.2
23/03:30am 19.7 20.0 17.8 89 1.2 SSW 13 20 7 11 - - 3.2
23/03:00am 20.0 20.6 17.6 86 1.5 SW 11 17 6 9 - - 3.2
23/02:30am 20.1 20.0 17.9 87 1.4 SSW 15 24 8 13 - - 3.0
23/02:00am 20.3 20.5 17.7 85 1.6 SSW 13 19 7 10 - - 2.6
23/01:30am 20.6 20.3 17.4 82 2.0 SSE 15 20 8 11 - - 2.6
23/01:00am 21.5 20.9 17.5 78 2.5 S 17 24 9 13 - - 2.6
23/12:30am 25.9 25.2 16.5 56 5.8 S 15 19 8 10 - - 2.6
23/12:00am 26.8 26.0 15.2 49 7.1 NE 13 17 7 9 - - 2.6
 
Date/Time
EDT
Temp
°C
App
Temp
°C
Dew
Point
°C
Rel
Hum
%
Delta-T
°C
Wind Press
QNH
hPa
Press
MSL
hPa
Rain since
9am
mm
Dir  Spd
km/h
Gust
km/h
Spd
kts
Gust
kts
22/11:30pm 26.4 26.3 16.1 53 6.3 NNW 11 13 6 7 - - 2.6
22/11:00pm 27.2 26.2 15.6 49 7.1 NNE 15 20 8 11 - - 2.6
22/10:30pm 26.4 25.6 16.1 53 6.3 NNE 15 20 8 11 - - 2.6
22/10:00pm 23.9 24.4 18.3 71 3.5 NNE 13 19 7 10 - - 2.6
22/09:30pm 26.1 21.0 15.8 53 6.3 NW 37 72 20 39 - - 2.6
22/09:28pm 26.6 20.3 15.6 50 6.7 WNW 43 72 23 39 - - 2.4
22/09:24pm 28.2 21.2 13.7 41 8.7 WNW 43 72 23 39 - - 1.8
22/09:23pm 27.5 21.1 14.2 44 8.0 WNW 41 72 22 39 - - 1.6
22/09:22pm 27.3 21.2 14.0 44 8.0 NW 39 72 21 39 - - 1.6
22/09:17pm 26.3 23.9 16.5 54 6.1 NW 24 54 13 29 - - 0.8
22/09:00pm 31.3 28.7 13.1 33 10.9 N 19 33 10 18 - - 0.0
22/08:30pm 31.3 30.1 14.0 35 10.5 NNW 13 15 7 8 - - 0.0
22/08:00pm 34.4 30.9 12.1 26 13.3 NNW 22 48 12 26 - - 0.0
22/07:50pm 32.0 29.6 12.8 31 11.5 NNW 17 56 9 30 - - 0.0
22/07:30pm 33.4 31.8 14.0 31 11.9 N 15 20 8 11 - - 0.0
22/07:00pm 34.4 32.6 13.3 28 12.8 N 15 19 8 10 - - 0.0
22/06:30pm 36.6 34.0 12.1 23 14.8 N 17 26 9 14 - - 0.0
22/06:00pm 36.6 34.1 13.4 25 14.3 N 19 32 10 17 - - 0.0
22/05:30pm 36.6 32.9 12.8 24 14.5 NNW 24 33 13 18 - - 0.0
22/05:00pm 36.6 34.5 14.6 27 13.8 N 19 26 10 14 - - 0.0
22/04:30pm 35.9 32.4 13.4 26 13.8 NNW 24 33 13 18 - - 0.0
22/04:00pm 36.9 34.3 14.8 26 13.9 NNW 22 30 12 16 - - 0.0
22/03:30pm 36.1 34.2 14.1 26 13.6 N 17 26 9 14 - - 0.0
22/03:00pm 35.7 32.7 13.8 27 13.5 N 22 32 12 17 - - 0.0
22/02:30pm 35.1 34.0 16.4 32 11.9 N 17 24 9 13 - - 0.0
22/02:00pm 34.0 30.9 14.5 31 12.1 NNE 24 33 13 18 - - 0.0
22/01:30pm 33.6 31.6 16.5 36 10.9 N 22 32 12 17 - - 0.0
22/01:00pm 32.7 30.8 15.2 34 10.9 NNE 19 30 10 16 - - 0.0
22/12:30pm 31.1 30.6 17.8 45 8.5 NNE 17 24 9 13 - - 0.0
22/12:00pm 30.6 29.8 17.0 44 8.6 NNE 17 24 9 13 - - 0.0
22/11:30am 28.6 28.4 17.5 51 7.0 NNE 15 22 8 12 - - 0.0
22/11:00am 28.1 28.1 18.2 55 6.3 NE 15 24 8 13 - - 0.0
22/10:30am 26.3 26.1 18.4 61 5.0 NE 17 26 9 14 - - 0.0
22/10:00am 25.4 24.6 18.1 64 4.6 NNE 19 26 10 14 - - 0.0
22/09:30am 24.4 23.4 17.6 66 4.3 NE 19 28 10 15 - - 0.0
22/09:00am 23.4 22.2 17.4 69 3.7 NE 20 30 11 16 - - 6.6
22/08:30am 22.7 21.6 17.2 71 3.4 NE 19 33 10 18 - - 6.6
22/08:00am 21.8 21.3 17.0 74 3.0 ENE 15 20 8 11 - - 6.6
22/07:30am 20.7 20.5 16.7 78 2.4 ENE 13 19 7 10 - - 6.6
22/07:00am 19.7 20.5 16.3 81 2.0 ENE 7 11 4 6 - - 6.6
22/06:30am 20.2 20.5 16.0 77 2.5 NE 9 17 5 9 - - 6.6
22/06:00am 20.4 19.5 15.8 75 2.8 ENE 15 19 8 10 - - 6.6
22/05:30am 20.8 20.2 15.6 72 3.1 ENE 13 20 7 11 - - 6.6
22/05:00am 20.6 19.7 15.8 74 2.9 ENE 15 20 8 11 - - 6.6
22/04:30am 20.1 19.4 15.3 74 2.8 ENE 13 19 7 10 - - 6.6
22/04:00am 19.9 19.1 15.1 74 2.8 ENE 13 17 7 9 - - 6.6
22/03:30am 19.8 19.0 15.2 75 2.7 ENE 13 15 7 8 - - 6.6
22/03:00am 20.2 19.8 15.2 73 3.0 E 11 15 6 8 - - 6.6
22/02:30am 19.9 19.9 15.1 74 2.8 ENE 9 11 5 6 - - 6.6
22/02:00am 20.7 20.6 15.0 70 3.4 E 9 11 5 6 - - 6.6
22/01:30am 20.7 20.7 15.3 71 3.2 E 9 11 5 6 - - 6.6
22/01:00am 19.4 20.1 16.1 81 2.0 E 7 9 4 5 - - 6.6
22/12:30am 20.4 20.9 15.6 74 2.9 E 7 9 4 5 - - 6.6
22/12:00am 21.8 21.8 15.2 66 3.9 E 9 11 5 6 - - 6.6
 
Date/Time
EDT
Temp
°C
App
Temp
°C
Dew
Point
°C
Rel
Hum
%
Delta-T
°C
Wind Press
QNH
hPa
Press
MSL
hPa
Rain since
9am
mm
Dir  Spd
km/h
Gust
km/h
Spd
kts
Gust
kts
21/11:30pm 21.1 21.5 15.2 69 3.5 E 7 11 4 6 - - 6.6
21/11:00pm 22.1 22.3 14.7 63 4.4 ESE 7 11 4 6 - - 6.6
21/10:30pm 22.1 22.5 15.2 65 4.1 ESE 7 9 4 5 - - 6.6
21/10:00pm 23.1 22.7 15.2 61 4.7 E 11 11 6 6 - - 6.6
21/09:30pm 23.4 24.0 15.7 62 4.7 ESE 7 11 4 6 - - 6.6
21/09:00pm 24.7 24.5 14.8 54 5.9 E 9 13 5 7 - - 6.6
21/08:30pm 25.4 25.2 14.8 52 6.4 ESE 9 13 5 7 - - 6.6
21/08:00pm 26.8 26.9 15.5 50 6.9 ESE 9 13 5 7 - - 6.6
21/07:30pm 28.6 28.7 15.5 45 8.1 E 9 15 5 8 - - 6.6
21/07:00pm 29.6 28.7 13.8 38 9.5 E 11 17 6 9 - - 6.6
21/06:30pm 30.2 29.4 13.9 37 9.9 E 11 15 6 8 - - 6.6
21/06:00pm 30.5 29.4 14.2 37 9.9 ENE 13 17 7 9 - - 6.6
21/05:30pm 30.6 29.3 13.8 35 10.2 E 13 19 7 10 - - 6.6
21/05:00pm 30.1 28.8 13.8 37 9.8 E 13 19 7 10 - - 6.6
21/04:30pm 30.7 30.5 16.7 43 8.8 E 13 19 7 10 - - 6.6
21/04:00pm 30.1 29.3 15.0 40 9.3 E 13 20 7 11 - - 6.6
21/03:30pm 29.5 28.5 14.5 40 9.1 ENE 13 19 7 10 - - 6.6
21/03:00pm 28.9 27.8 15.4 44 8.3 ESE 15 20 8 11 - - 6.6
21/02:30pm 28.5 27.7 16.1 47 7.7 E 15 20 8 11 - - 6.6
21/02:00pm 27.8 27.5 17.3 52 6.6 E 15 20 8 11 - - 6.6
21/01:30pm 26.7 26.2 16.9 55 6.1 E 15 20 8 11 - - 6.6
21/01:00pm 25.9 26.9 18.6 64 4.7 E 11 17 6 9 - - 6.6
21/12:30pm 23.8 23.9 17.5 68 3.9 SE 13 20 7 11 - - 6.4
21/12:00pm 23.2 23.8 18.7 76 2.9 E 13 17 7 9 - - 6.4
21/11:30am 22.4 22.3 17.8 75 2.9 NNE 15 24 8 13 - - 6.4
21/11:00am 19.9 20.9 16.9 83 1.8 N 7 11 4 6 - - 6.4
21/10:30am 18.9 19.5 16.7 87 1.3 NNE 9 17 5 9 - - 6.4
21/10:00am 19.3 17.6 15.8 80 2.1 ENE 19 24 10 13 - - 6.2
21/09:30am 18.1 15.8 16.6 91 0.9 NE 24 30 13 16 - - 5.6
21/09:00am 17.8 17.4 16.3 91 0.9 NE 13 17 7 9 - - 25.2
21/08:30am 18.3 16.7 16.1 87 1.3 ENE 19 28 10 15 - - 23.4
21/08:00am 18.0 15.4 16.0 88 1.2 NE 24 37 13 20 - - 23.4
21/07:30am 17.8 15.3 16.1 90 1.0 ENE 24 35 13 19 - - 21.6
21/07:00am 18.0 16.8 16.0 88 1.2 NE 17 30 9 16 - - 14.2
21/06:30am 18.0 15.8 16.0 88 1.2 SE 22 35 12 19 - - 8.8
21/06:00am 19.2 17.4 15.9 81 2.0 WSW 20 35 11 19 - - 4.8
21/05:30am 19.6 17.0 15.9 79 2.2 NE 24 37 13 20 - - 4.6
21/05:00am 19.6 15.5 16.4 82 1.9 NE 33 48 18 26 - - 4.6
21/04:47am 19.3 16.2 16.5 84 1.7 NE 28 44 15 24 - - 4.2
21/04:30am 19.7 19.0 16.5 82 1.9 ENE 15 22 8 12 - - 0.6
21/04:00am 19.3 17.5 16.9 86 1.5 ENE 22 33 12 18 - - 0.6
21/03:30am 19.9 18.6 16.9 83 1.8 ENE 19 26 10 14 - - 0.0
21/03:00am 20.5 19.1 16.5 78 2.4 ENE 19 28 10 15 - - 0.0
21/02:30am 20.4 18.4 16.4 78 2.4 ENE 22 35 12 19 - - 0.0
21/02:00am 20.5 19.0 16.7 79 2.3 ENE 20 30 11 16 - - 0.0
21/01:30am 20.4 18.0 17.4 83 1.8 NE 26 37 14 20 - - 0.0
21/01:00am 22.1 18.8 16.1 69 3.6 NNE 28 43 15 23 - - 0.0
21/12:30am 24.8 22.3 14.0 51 6.4 NNE 20 33 11 18 - - 0.0
21/12:00am 24.1 23.2 12.7 49 6.6 E 9 11 5 6 - - 0.0

Other formats

Comma delimited format used in spreadsheet applications
http://www.bom.gov.au/fwo/IDV60801/IDV60801.95836.axf

JavaScript Object Notation format (JSON) in row-major order
http://www.bom.gov.au/fwo/IDV60801/IDV60801.95836.json

Data quality

Most of these data are generated automatically and are frequently updated. Quality checks on data are not normally performed. It is possible for incorrect values to appear. Refer to information at About Latest Weather Observations and please check the disclaimer before using these data.